createdAt,value
2023-05-20T00:01:18.989Z,9.50
2023-05-20T00:03:46.720Z,9.40
2023-05-20T00:06:13.867Z,9.40
2023-05-20T00:08:40.812Z,9.40
2023-05-20T00:11:07.829Z,9.30
2023-05-20T00:13:36.329Z,9.30
2023-05-20T00:16:03.381Z,9.20
2023-05-20T00:18:30.468Z,9.20
2023-05-20T00:20:57.413Z,9.20
2023-05-20T00:23:24.443Z,9.20
2023-05-20T00:25:51.496Z,9.20
2023-05-20T00:28:19.935Z,9.10
2023-05-20T00:30:47.221Z,9.10
2023-05-20T00:33:14.228Z,9.10
2023-05-20T00:35:41.360Z,9.10
2023-05-20T00:38:08.311Z,9.20
2023-05-20T00:40:35.289Z,9.10
2023-05-20T00:43:02.226Z,9.00
2023-05-20T00:45:29.601Z,9.00
2023-05-20T00:47:59.792Z,9.00
2023-05-20T00:50:27.506Z,8.90
2023-05-20T00:52:55.555Z,8.90
2023-05-20T00:55:23.027Z,8.90
2023-05-20T00:57:50.201Z,8.80
2023-05-20T01:00:17.139Z,8.80
2023-05-20T01:02:44.272Z,8.80
2023-05-20T01:05:11.287Z,8.80
2023-05-20T01:07:38.429Z,8.70
2023-05-20T01:10:05.863Z,8.70
2023-05-20T01:12:38.836Z,8.70
2023-05-20T01:15:14.594Z,8.60
2023-05-20T01:17:47.711Z,8.60
2023-05-20T01:20:15.352Z,8.60
2023-05-20T01:22:56.083Z,8.60
2023-05-20T01:25:25.020Z,8.60
2023-05-20T01:27:53.086Z,8.60
2023-05-20T01:30:21.321Z,8.60
2023-05-20T01:32:58.336Z,8.60
2023-05-20T01:35:25.848Z,8.50
2023-05-20T01:37:54.220Z,8.50
2023-05-20T01:40:22.437Z,8.50
2023-05-20T01:42:53.655Z,8.50
2023-05-20T01:45:20.990Z,8.50
2023-05-20T01:47:50.048Z,8.40
2023-05-20T01:50:17.203Z,8.40
2023-05-20T01:52:44.157Z,8.40
2023-05-20T01:55:11.132Z,8.30
2023-05-20T01:57:38.108Z,8.30
2023-05-20T02:00:07.074Z,8.30
2023-05-20T02:02:34.296Z,8.30
2023-05-20T02:05:03.173Z,8.30
2023-05-20T02:07:30.141Z,8.30
2023-05-20T02:09:57.082Z,8.30
2023-05-20T02:12:24.184Z,8.20
2023-05-20T02:14:51.123Z,8.20
2023-05-20T02:17:18.491Z,8.30
2023-05-20T02:19:47.088Z,8.30
2023-05-20T02:22:14.890Z,8.30
2023-05-20T02:24:43.606Z,8.30
2023-05-20T02:27:10.926Z,8.40
2023-05-20T02:29:37.839Z,8.40
2023-05-20T02:32:05.091Z,8.40
2023-05-20T02:34:33.125Z,8.50
2023-05-20T02:37:00.237Z,8.50
2023-05-20T02:39:28.600Z,8.50
2023-05-20T02:41:56.452Z,8.60
2023-05-20T02:44:23.498Z,8.70
2023-05-20T02:46:50.658Z,8.80
2023-05-20T02:49:17.682Z,9.00
2023-05-20T02:51:44.583Z,9.00
2023-05-20T02:54:11.620Z,9.10
2023-05-20T02:56:38.598Z,9.20
2023-05-20T02:59:07.307Z,9.30
2023-05-20T03:01:35.654Z,9.30
2023-05-20T03:04:03.822Z,9.30
2023-05-20T03:06:32.072Z,9.40
2023-05-20T03:08:59.603Z,9.40
2023-05-20T03:11:26.591Z,9.50
2023-05-20T03:13:56.162Z,9.60
2023-05-20T03:16:25.264Z,9.60
2023-05-20T03:18:52.353Z,9.70
2023-05-20T03:21:19.375Z,9.80
2023-05-20T03:23:46.644Z,9.80
2023-05-20T03:26:13.847Z,9.90
2023-05-20T03:28:40.821Z,10.00
2023-05-20T03:31:07.801Z,10.10
2023-05-20T03:33:35.761Z,10.20
2023-05-20T03:36:02.748Z,10.30
2023-05-20T03:38:30.262Z,10.40
2023-05-20T03:40:57.240Z,10.50
2023-05-20T03:43:25.328Z,10.60
2023-05-20T03:45:52.262Z,10.70
2023-05-20T03:48:20.334Z,10.80
2023-05-20T03:50:47.352Z,10.90
2023-05-20T03:53:14.334Z,11.00
2023-05-20T03:55:43.453Z,11.20
2023-05-20T03:58:10.482Z,11.30
2023-05-20T04:00:37.461Z,11.40
2023-05-20T04:03:04.489Z,11.50
2023-05-20T04:05:31.901Z,11.60
2023-05-20T04:07:59.505Z,11.80
2023-05-20T04:10:26.507Z,11.90
2023-05-20T04:12:54.096Z,12.00
2023-05-20T04:15:24.008Z,12.20
2023-05-20T04:17:52.453Z,12.30
2023-05-20T04:20:20.066Z,12.40
2023-05-20T04:22:48.171Z,12.50
2023-05-20T04:25:15.105Z,12.60
2023-05-20T04:27:42.132Z,12.80
2023-05-20T04:30:10.353Z,13.00
2023-05-20T04:32:37.521Z,13.10
2023-05-20T04:35:11.868Z,13.20
2023-05-20T04:37:39.361Z,13.40
2023-05-20T04:40:06.909Z,13.40
2023-05-20T04:42:34.245Z,13.60
2023-05-20T04:45:02.180Z,13.60
2023-05-20T04:47:29.432Z,13.80
2023-05-20T04:50:00.036Z,13.90
2023-05-20T04:52:27.665Z,14.00
2023-05-20T04:54:58.313Z,14.10
2023-05-20T04:57:25.823Z,14.30
2023-05-20T04:59:52.901Z,14.40
2023-05-20T05:02:19.870Z,14.40
2023-05-20T05:04:46.801Z,14.50
2023-05-20T05:07:13.773Z,14.60
2023-05-20T05:09:40.931Z,14.70
2023-05-20T05:12:08.010Z,14.80
2023-05-20T05:14:35.024Z,14.80
2023-05-20T05:17:01.966Z,15.00
2023-05-20T05:19:28.886Z,15.00
2023-05-20T05:21:55.987Z,15.10
2023-05-20T05:24:22.925Z,15.20
2023-05-20T05:26:54.410Z,15.10
2023-05-20T05:29:21.462Z,15.20
2023-05-20T05:31:48.504Z,15.40
2023-05-20T05:34:15.563Z,15.40
2023-05-20T05:36:42.658Z,15.50
2023-05-20T05:39:09.529Z,15.50
2023-05-20T05:41:36.458Z,15.60
2023-05-20T05:44:04.433Z,15.60
2023-05-20T05:46:31.594Z,15.60
2023-05-20T05:48:59.084Z,15.70
2023-05-20T05:51:29.192Z,15.80
2023-05-20T05:53:56.223Z,15.70
2023-05-20T05:56:23.130Z,15.70
2023-05-20T05:58:50.112Z,15.80
2023-05-20T06:01:17.169Z,15.80
2023-05-20T06:03:44.341Z,15.70
2023-05-20T06:06:11.406Z,15.80
2023-05-20T06:08:38.476Z,15.80
2023-05-20T06:11:05.449Z,15.90
2023-05-20T06:13:32.403Z,15.90
2023-05-20T06:15:59.320Z,16.00
2023-05-20T06:18:26.279Z,16.00
2023-05-20T06:21:00.141Z,16.10
2023-05-20T06:23:27.279Z,16.00
2023-05-20T06:25:58.760Z,16.10
2023-05-20T06:28:29.705Z,16.10
2023-05-20T06:30:57.285Z,16.10
2023-05-20T06:33:28.700Z,16.20
2023-05-20T06:35:57.022Z,16.20
2023-05-20T06:38:24.079Z,16.30
2023-05-20T06:40:51.378Z,16.50
2023-05-20T06:43:18.870Z,16.50
2023-05-20T06:45:45.916Z,16.60
2023-05-20T06:48:12.891Z,16.70
2023-05-20T06:50:39.883Z,16.70
2023-05-20T06:53:06.810Z,17.00
2023-05-20T06:55:33.959Z,17.80
2023-05-20T06:58:01.053Z,18.70
2023-05-20T07:00:28.008Z,19.40
2023-05-20T07:02:55.051Z,20.80
2023-05-20T07:05:22.083Z,22.00
2023-05-20T07:07:49.067Z,22.50
2023-05-20T07:10:16.027Z,22.30
2023-05-20T07:12:42.965Z,23.30
2023-05-20T07:15:10.272Z,23.10
2023-05-20T07:17:38.412Z,22.80
2023-05-20T07:20:06.276Z,23.00
2023-05-20T07:22:33.439Z,22.80
2023-05-20T07:25:02.378Z,22.80
2023-05-20T07:27:29.515Z,23.10
2023-05-20T07:29:56.579Z,24.00
2023-05-20T07:32:23.511Z,24.20
2023-05-20T07:34:50.610Z,24.30
2023-05-20T07:37:17.613Z,23.70
2023-05-20T07:39:44.652Z,22.70
2023-05-20T07:42:11.582Z,23.30
2023-05-20T07:44:39.277Z,23.60
2023-05-20T07:47:07.425Z,23.90
2023-05-20T07:49:34.480Z,23.80
2023-05-20T07:52:02.956Z,24.00
2023-05-20T07:54:30.309Z,24.00
2023-05-20T07:56:57.285Z,23.60
2023-05-20T07:59:24.616Z,24.70
2023-05-20T08:01:51.605Z,24.70
2023-05-20T08:04:18.743Z,23.90
2023-05-20T08:06:46.072Z,23.70
2023-05-20T08:09:13.090Z,24.90
2023-05-20T08:11:40.011Z,25.50
2023-05-20T08:14:07.086Z,24.20
2023-05-20T08:16:34.088Z,23.90
2023-05-20T08:19:01.115Z,24.00
2023-05-20T08:21:28.746Z,25.20
2023-05-20T08:23:55.862Z,25.20
2023-05-20T08:26:23.234Z,26.00
2023-05-20T08:28:50.143Z,25.90
2023-05-20T08:31:18.314Z,24.30
2023-05-20T08:33:45.568Z,25.60
2023-05-20T08:36:12.552Z,26.80
2023-05-20T08:38:39.489Z,25.90
2023-05-20T08:41:06.442Z,25.70
2023-05-20T08:43:33.526Z,25.00
2023-05-20T08:46:02.484Z,24.60
2023-05-20T08:48:30.811Z,26.10
2023-05-20T08:50:58.261Z,26.80
2023-05-20T08:53:26.765Z,25.70
2023-05-20T08:56:00.814Z,26.50
2023-05-20T08:58:29.557Z,26.80
2023-05-20T09:00:56.938Z,26.40
2023-05-20T09:03:25.743Z,26.80
2023-05-20T09:05:54.040Z,27.90
2023-05-20T09:08:26.475Z,27.70
2023-05-20T09:10:54.578Z,28.70
2023-05-20T09:13:23.628Z,26.70
2023-05-20T09:15:51.201Z,25.90
2023-05-20T09:18:18.324Z,25.60
2023-05-20T09:20:48.492Z,25.70
2023-05-20T09:23:15.506Z,26.40
2023-05-20T09:25:42.465Z,27.60
2023-05-20T09:28:10.048Z,28.80
2023-05-20T09:30:38.424Z,29.80
2023-05-20T09:33:07.785Z,28.30
2023-05-20T09:35:39.518Z,27.60
2023-05-20T09:38:10.089Z,27.80
2023-05-20T09:40:40.734Z,28.60
2023-05-20T09:43:08.283Z,28.90
2023-05-20T09:45:35.855Z,30.00
2023-05-20T09:48:04.003Z,29.50
2023-05-20T09:50:32.234Z,29.80
2023-05-20T09:53:03.850Z,29.10
2023-05-20T09:55:31.312Z,28.30
2023-05-20T09:58:02.415Z,28.90
2023-05-20T10:00:29.795Z,28.70
2023-05-20T10:02:59.684Z,27.20
2023-05-20T10:05:42.202Z,26.20
2023-05-20T10:08:35.439Z,26.80
2023-05-20T10:11:33.889Z,27.70
2023-05-20T10:14:19.836Z,28.10
2023-05-20T10:17:17.629Z,26.90
2023-05-20T10:19:45.046Z,25.00
2023-05-20T10:22:12.319Z,24.90
2023-05-20T10:24:43.613Z,24.00
2023-05-20T10:27:15.821Z,24.20
2023-05-20T10:29:45.011Z,23.90
2023-05-20T10:32:12.256Z,23.80
2023-05-20T10:34:48.105Z,23.90
2023-05-20T10:37:26.958Z,24.50
2023-05-20T10:40:25.589Z,24.60
2023-05-20T10:42:52.497Z,25.30
2023-05-20T10:45:29.777Z,25.40
2023-05-20T10:47:58.086Z,25.80
2023-05-20T10:50:36.314Z,25.10
2023-05-20T10:53:13.288Z,25.00
2023-05-20T10:55:51.953Z,24.40
2023-05-20T10:58:19.898Z,24.30
2023-05-20T11:00:50.832Z,23.90
2023-05-20T11:03:18.980Z,24.00
2023-05-20T11:05:47.589Z,23.60
2023-05-20T11:08:27.883Z,24.20
2023-05-20T11:10:59.428Z,24.50
2023-05-20T11:13:27.083Z,24.20
2023-05-20T11:15:54.471Z,24.50
2023-05-20T11:18:21.483Z,24.20
2023-05-20T11:20:48.623Z,23.50
2023-05-20T11:23:16.064Z,23.20
2023-05-20T11:25:43.140Z,23.10
2023-05-20T11:28:16.558Z,23.00
2023-05-20T11:30:43.921Z,22.80
2023-05-20T11:33:15.255Z,22.40
2023-05-20T11:35:46.044Z,22.20
2023-05-20T11:38:13.309Z,22.10
2023-05-20T11:40:50.625Z,22.00
2023-05-20T11:43:19.163Z,22.20
2023-05-20T11:45:48.183Z,22.30
2023-05-20T11:48:18.021Z,22.20
2023-05-20T11:50:46.934Z,21.80
2023-05-20T11:53:22.733Z,21.70
2023-05-20T11:55:59.382Z,21.50
2023-05-20T11:58:30.181Z,21.60
2023-05-20T12:01:08.928Z,21.60
2023-05-20T12:03:41.250Z,21.20
2023-05-20T12:06:08.499Z,21.40
2023-05-20T12:08:35.456Z,21.60
2023-05-20T12:11:02.541Z,21.40
2023-05-20T12:13:29.502Z,21.20
2023-05-20T12:15:56.656Z,21.10
2023-05-20T12:18:23.670Z,20.90
2023-05-20T12:20:50.612Z,21.30
2023-05-20T12:23:17.493Z,21.30
2023-05-20T12:25:47.358Z,21.30
2023-05-20T12:28:14.754Z,21.10
2023-05-20T12:30:41.874Z,21.30
2023-05-20T12:33:09.508Z,21.10
2023-05-20T12:35:41.388Z,20.90
2023-05-20T12:38:08.972Z,21.20
2023-05-20T12:40:37.304Z,21.30
2023-05-20T12:43:05.419Z,21.10
2023-05-20T12:45:32.419Z,21.10
2023-05-20T12:47:59.883Z,20.90
2023-05-20T12:50:27.534Z,20.70
2023-05-20T12:52:54.571Z,20.80
2023-05-20T12:55:21.573Z,20.50
2023-05-20T12:57:48.653Z,20.50
2023-05-20T13:00:16.203Z,20.40
2023-05-20T13:02:43.583Z,20.50
2023-05-20T13:05:11.693Z,20.70
2023-05-20T13:07:39.396Z,20.30
2023-05-20T13:10:08.167Z,20.20
2023-05-20T13:12:35.488Z,20.10
2023-05-20T13:15:02.804Z,19.90
2023-05-20T13:17:32.115Z,20.00
2023-05-20T13:19:59.371Z,20.10
2023-05-20T13:22:26.374Z,20.20
2023-05-20T13:24:53.308Z,20.20
2023-05-20T13:27:20.309Z,20.00
2023-05-20T13:29:47.318Z,19.70
2023-05-20T13:32:14.529Z,19.80
2023-05-20T13:34:41.471Z,19.70
2023-05-20T13:37:08.557Z,19.70
2023-05-20T13:39:36.466Z,19.90
2023-05-20T13:42:04.475Z,19.90
2023-05-20T13:44:32.738Z,19.70
2023-05-20T13:47:00.011Z,19.80
2023-05-20T13:49:27.000Z,19.80
2023-05-20T13:51:53.969Z,19.70
2023-05-20T13:54:21.690Z,19.40
2023-05-20T13:56:53.179Z,19.30
2023-05-20T13:59:20.561Z,19.30
2023-05-20T14:01:47.527Z,19.50
2023-05-20T14:04:14.516Z,19.30
2023-05-20T14:06:41.655Z,19.10
2023-05-20T14:09:12.003Z,19.10
2023-05-20T14:11:38.961Z,19.00
2023-05-20T14:14:06.544Z,19.00
2023-05-20T14:16:33.661Z,18.80
2023-05-20T14:19:00.642Z,18.60
2023-05-20T14:21:27.686Z,18.70
2023-05-20T14:23:54.670Z,18.60
2023-05-20T14:26:21.878Z,18.50
2023-05-20T14:28:49.412Z,18.50
2023-05-20T14:31:17.357Z,18.50
2023-05-20T14:33:44.379Z,18.60
2023-05-20T14:36:11.789Z,18.70
2023-05-20T14:38:39.032Z,18.60
2023-05-20T14:41:06.186Z,18.50
2023-05-20T14:43:33.362Z,18.60
2023-05-20T14:46:01.004Z,18.60
2023-05-20T14:48:27.969Z,18.60
2023-05-20T14:50:55.090Z,18.60
2023-05-20T14:53:23.206Z,18.60
2023-05-20T14:55:50.136Z,18.30
2023-05-20T14:58:17.144Z,18.40
2023-05-20T15:00:44.973Z,18.40
2023-05-20T15:03:12.048Z,18.60
2023-05-20T15:05:39.297Z,18.60
2023-05-20T15:08:06.437Z,18.60
2023-05-20T15:10:33.627Z,18.70
2023-05-20T15:13:00.938Z,18.70
2023-05-20T15:15:27.967Z,18.70
2023-05-20T15:17:55.477Z,18.60
2023-05-20T15:20:22.794Z,18.70
2023-05-20T15:22:49.726Z,18.80
2023-05-20T15:25:18.125Z,18.80
2023-05-20T15:27:45.212Z,18.80
2023-05-20T15:30:12.936Z,18.70
2023-05-20T15:32:40.151Z,18.80
2023-05-20T15:35:07.643Z,18.80
2023-05-20T15:37:34.694Z,18.80
2023-05-20T15:40:01.954Z,18.70
2023-05-20T15:42:29.166Z,18.70
2023-05-20T15:44:56.142Z,18.60
2023-05-20T15:47:23.122Z,18.60
2023-05-20T15:49:50.269Z,18.60
2023-05-20T15:52:17.242Z,18.60
2023-05-20T15:54:44.133Z,18.60
2023-05-20T15:57:11.140Z,18.60
2023-05-20T15:59:38.195Z,18.50
2023-05-20T16:02:05.209Z,18.50
2023-05-20T16:04:32.696Z,18.40
2023-05-20T16:06:59.807Z,18.30
2023-05-20T16:09:26.787Z,18.30
2023-05-20T16:11:53.821Z,18.30
2023-05-20T16:14:20.852Z,18.30
2023-05-20T16:16:47.856Z,18.20
2023-05-20T16:19:15.294Z,18.20
2023-05-20T16:21:42.227Z,18.20
2023-05-20T16:24:09.244Z,18.10
2023-05-20T16:26:36.983Z,18.10
2023-05-20T16:29:03.893Z,18.00
2023-05-20T16:31:30.984Z,18.00
2023-05-20T16:33:58.254Z,17.90
2023-05-20T16:36:25.922Z,17.90
2023-05-20T16:38:52.872Z,17.90
2023-05-20T16:41:19.880Z,17.90
2023-05-20T16:43:46.864Z,17.90
2023-05-20T16:46:14.801Z,17.90
2023-05-20T16:48:42.489Z,17.80
2023-05-20T16:51:09.421Z,17.90
2023-05-20T16:53:36.512Z,17.80
2023-05-20T16:56:06.159Z,17.80
2023-05-20T16:58:33.130Z,17.80
2023-05-20T17:01:00.325Z,17.80
2023-05-20T17:03:28.664Z,17.70
2023-05-20T17:05:55.990Z,17.80
2023-05-20T17:08:23.025Z,17.70
2023-05-20T17:10:52.455Z,17.70
2023-05-20T17:13:21.147Z,17.70
2023-05-20T17:15:48.306Z,17.60
2023-05-20T17:18:15.371Z,17.60
2023-05-20T17:20:42.417Z,17.60
2023-05-20T17:23:09.586Z,17.50
2023-05-20T17:25:36.971Z,17.50
2023-05-20T17:28:04.025Z,17.40
2023-05-20T17:30:30.980Z,17.40
2023-05-20T17:32:58.221Z,17.40
2023-05-20T17:35:28.309Z,17.30
2023-05-20T17:37:55.319Z,17.20
2023-05-20T17:40:22.423Z,17.20
2023-05-20T17:42:49.441Z,17.20
2023-05-20T17:45:16.512Z,17.10
2023-05-20T17:47:43.604Z,17.10
2023-05-20T17:50:11.163Z,17.00
2023-05-20T17:52:38.199Z,17.00
2023-05-20T17:55:06.773Z,17.00
2023-05-20T17:57:33.948Z,16.90
2023-05-20T18:00:00.909Z,16.90
2023-05-20T18:02:28.035Z,16.80
2023-05-20T18:04:55.186Z,16.80
2023-05-20T18:07:23.466Z,16.80
2023-05-20T18:09:50.588Z,16.70
2023-05-20T18:12:17.572Z,16.70
2023-05-20T18:14:44.538Z,16.60
2023-05-20T18:17:11.598Z,16.50
2023-05-20T18:19:38.519Z,16.50
2023-05-20T18:22:07.327Z,16.40
2023-05-20T18:24:34.464Z,16.40
2023-05-20T18:27:01.738Z,16.40
2023-05-20T18:29:28.710Z,16.30
2023-05-20T18:31:55.797Z,16.20
2023-05-20T18:34:25.372Z,16.10
2023-05-20T18:36:52.717Z,16.10
2023-05-20T18:39:21.269Z,16.00
2023-05-20T18:41:48.695Z,16.00
2023-05-20T18:44:19.354Z,16.00
2023-05-20T18:46:46.566Z,15.90
2023-05-20T18:49:13.484Z,15.90
2023-05-20T18:51:40.910Z,15.80
2023-05-20T18:54:08.423Z,15.80
2023-05-20T18:56:36.277Z,15.70
2023-05-20T18:59:03.447Z,15.70
2023-05-20T19:01:31.323Z,15.70
2023-05-20T19:03:58.379Z,15.60
2023-05-20T19:06:25.858Z,15.60
2023-05-20T19:08:52.793Z,15.60
2023-05-20T19:11:19.676Z,15.50
2023-05-20T19:13:46.575Z,15.40
2023-05-20T19:16:13.722Z,15.30
2023-05-20T19:18:41.017Z,15.40
2023-05-20T19:21:07.939Z,15.30
2023-05-20T19:23:34.926Z,15.30
2023-05-20T19:26:02.200Z,15.30
2023-05-20T19:28:29.155Z,15.20
2023-05-20T19:30:56.155Z,15.20
2023-05-20T19:33:23.227Z,15.20
2023-05-20T19:35:50.259Z,15.20
2023-05-20T19:38:17.523Z,15.20
2023-05-20T19:40:45.082Z,15.20
2023-05-20T19:43:12.011Z,15.20
2023-05-20T19:45:39.259Z,15.20
2023-05-20T19:48:06.885Z,15.20
2023-05-20T19:50:34.290Z,15.20
2023-05-20T19:53:03.460Z,15.20
2023-05-20T19:55:30.447Z,15.20
2023-05-20T19:57:57.422Z,15.20
2023-05-20T20:00:24.463Z,15.20
2023-05-20T20:02:51.533Z,15.20
2023-05-20T20:05:19.504Z,15.10
2023-05-20T20:07:48.131Z,15.10
2023-05-20T20:10:15.119Z,15.10
2023-05-20T20:12:42.171Z,15.00
2023-05-20T20:15:09.876Z,15.00
2023-05-20T20:17:37.280Z,14.90
2023-05-20T20:20:10.252Z,14.80
2023-05-20T20:22:37.166Z,14.80
2023-05-20T20:25:04.190Z,14.70
2023-05-20T20:27:33.144Z,14.70
2023-05-20T20:30:00.314Z,14.60
2023-05-20T20:32:28.560Z,14.60
2023-05-20T20:34:55.528Z,14.60
2023-05-20T20:37:23.142Z,14.60
2023-05-20T20:39:50.162Z,14.60
2023-05-20T20:42:17.112Z,14.50
2023-05-20T20:44:48.512Z,14.40
2023-05-20T20:47:16.056Z,14.50
2023-05-20T20:49:43.301Z,14.40
2023-05-20T20:52:11.110Z,14.30
2023-05-20T20:54:43.282Z,14.30
2023-05-20T20:57:11.653Z,14.30
2023-05-20T20:59:39.946Z,14.20
2023-05-20T21:02:07.103Z,14.20
2023-05-20T21:04:34.238Z,14.10
2023-05-20T21:07:02.132Z,14.10
2023-05-20T21:09:29.352Z,14.10
2023-05-20T21:11:57.356Z,14.00
2023-05-20T21:14:25.384Z,14.00
2023-05-20T21:16:52.581Z,14.00
2023-05-20T21:19:19.755Z,13.90
2023-05-20T21:21:46.812Z,13.90
2023-05-20T21:24:13.809Z,13.90
2023-05-20T21:26:40.761Z,13.80
2023-05-20T21:29:10.140Z,13.80
2023-05-20T21:31:37.085Z,13.80
2023-05-20T21:34:04.374Z,13.80
2023-05-20T21:36:32.457Z,13.70
2023-05-20T21:38:59.421Z,13.70
2023-05-20T21:41:27.332Z,13.70
2023-05-20T21:43:54.324Z,13.60
2023-05-20T21:46:21.340Z,13.60
2023-05-20T21:48:48.322Z,13.50
2023-05-20T21:51:15.746Z,13.60
2023-05-20T21:53:42.870Z,13.60
2023-05-20T21:56:09.978Z,13.60
2023-05-20T21:58:41.251Z,13.60
2023-05-20T22:01:11.933Z,13.60
2023-05-20T22:03:40.122Z,13.60
2023-05-20T22:06:07.383Z,13.60
2023-05-20T22:08:34.824Z,13.60
2023-05-20T22:11:05.582Z,13.60
2023-05-20T22:13:33.348Z,13.60
2023-05-20T22:16:05.042Z,13.50
2023-05-20T22:18:32.332Z,13.50
2023-05-20T22:21:00.284Z,13.50
2023-05-20T22:23:28.140Z,13.40
2023-05-20T22:25:55.726Z,13.40
2023-05-20T22:28:23.837Z,13.30
2023-05-20T22:30:51.706Z,13.30
2023-05-20T22:33:18.775Z,13.30
2023-05-20T22:35:45.721Z,13.30
2023-05-20T22:38:12.716Z,13.30
2023-05-20T22:40:39.631Z,13.20
2023-05-20T22:43:06.596Z,13.20
2023-05-20T22:45:33.707Z,13.20
2023-05-20T22:48:02.074Z,13.20
2023-05-20T22:50:29.063Z,13.20
2023-05-20T22:52:56.127Z,13.20
2023-05-20T22:55:24.064Z,13.20
2023-05-20T22:57:51.472Z,13.20
2023-05-20T23:00:18.725Z,13.20
2023-05-20T23:02:50.081Z,13.10
2023-05-20T23:05:17.460Z,13.10
2023-05-20T23:07:45.101Z,13.10
2023-05-20T23:10:12.250Z,13.10
2023-05-20T23:12:39.221Z,13.10
2023-05-20T23:15:06.881Z,13.00
2023-05-20T23:17:36.282Z,12.90
2023-05-20T23:20:11.206Z,13.00
2023-05-20T23:22:38.971Z,13.00
2023-05-20T23:25:06.326Z,13.00
2023-05-20T23:27:33.573Z,12.90
2023-05-20T23:30:00.733Z,12.90
2023-05-20T23:32:27.824Z,12.80
2023-05-20T23:34:56.369Z,12.80
2023-05-20T23:37:23.428Z,12.70
2023-05-20T23:39:50.366Z,12.70
2023-05-20T23:42:17.312Z,12.70
2023-05-20T23:44:44.279Z,12.70
2023-05-20T23:47:13.649Z,12.70
2023-05-20T23:49:41.751Z,12.70
2023-05-20T23:52:08.712Z,12.70
2023-05-20T23:54:35.692Z,12.70
2023-05-20T23:57:02.709Z,12.70
2023-05-20T23:59:29.631Z,12.70
